Time;durP1;ratioP1;P1;durP2;ratioP2;P2;SDS_P1;SDS_P2;PMS_P1;PMS_P2;Temp;Humidity;BMP_temperature;BMP_pressure;BME280_temperature;BME280_humidity;BME280_pressure;Samples;Min_cycle;Max_cycle;Signal;HPM_P1;HPM_P2
2021/12/23 00:01:38;;;;;;;14.75;6.47;;;;;;;;;;5154560;27;20026;-72
2021/12/23 00:04:06;;;;;;;15.57;6.90;;;;;;;;;;5154286;27;20015;-72
2021/12/23 00:06:33;;;;;;;15.32;6.38;;;;;;;;;;5154538;27;20098;-72
2021/12/23 00:09:03;;;;;;;21.58;7.38;;;;;;;;;;5135646;27;20045;-72
2021/12/23 00:11:30;;;;;;;16.05;7.35;;;;;;;;;;5154487;27;20022;-72
2021/12/23 00:14:07;;;;;;;17.13;7.10;;;;;;;;;;5154388;27;20045;-72
2021/12/23 00:19:37;;;;;;;22.20;9.23;;;;;;;;;;5154251;27;20113;-72
2021/12/23 00:24:50;;;;;;;20.15;8.60;;;;;;;;;;5154648;27;20030;-72
2021/12/23 00:27:18;;;;;;;20.17;8.35;;;;;;;;;;5154444;27;20027;-73
2021/12/23 00:29:45;;;;;;;24.67;7.82;;;;;;;;;;5154322;27;20022;-72
2021/12/23 00:32:12;;;;;;;22.30;7.68;;;;;;;;;;5154414;27;20015;-72
2021/12/23 00:34:39;;;;;;;20.60;7.20;;;;;;;;;;5135611;27;20034;-72
2021/12/23 00:37:09;;;;;;;28.23;9.20;;;;;;;;;;5135404;27;20421;-72
2021/12/23 00:39:37;;;;;;;22.98;7.53;;;;;;;;;;5137773;27;20042;-72
2021/12/23 00:42:08;;;;;;;25.88;7.47;;;;;;;;;;5158389;27;20019;-72
2021/12/23 00:44:36;;;;;;;25.38;9.45;;;;;;;;;;5158415;27;20030;-73
2021/12/23 00:47:04;;;;;;;23.45;8.15;;;;;;;;;;5158308;27;20019;-72
2021/12/23 00:49:31;;;;;;;21.90;7.70;;;;;;;;;;5139633;27;20034;-72
2021/12/23 00:52:01;;;;;;;18.33;7.93;;;;;;;;;;5158062;27;20045;-72
2021/12/23 00:54:28;;;;;;;19.90;7.57;;;;;;;;;;5122526;27;20051;-72
2021/12/23 00:56:56;;;;;;;18.13;6.85;;;;;;;;;;5118868;27;20062;-72
2021/12/23 00:59:23;;;;;;;23.80;7.00;;;;;;;;;;5118820;27;20034;-72
2021/12/23 01:01:50;;;;;;;21.60;7.30;;;;;;;;;;5137181;27;20023;-73
2021/12/23 01:04:17;;;;;;;19.92;7.50;;;;;;;;;;5137218;27;20034;-72
2021/12/23 01:06:45;;;;;;;21.73;7.28;;;;;;;;;;5137176;27;20023;-72
2021/12/23 01:09:12;;;;;;;23.38;8.35;;;;;;;;;;5118754;27;20071;-72
2021/12/23 01:11:39;;;;;;;28.42;8.50;;;;;;;;;;5137041;27;20029;-73
2021/12/23 01:19:26;;;;;;;21.60;6.63;;;;;;;;;;5136933;27;20027;-72
2021/12/23 01:21:53;;;;;;;16.88;6.30;;;;;;;;;;5118278;27;20043;-72
2021/12/23 01:24:21;;;;;;;20.90;7.10;;;;;;;;;;5136887;27;20030;-72
2021/12/23 01:26:48;;;;;;;18.45;6.35;;;;;;;;;;5136786;27;20079;-72
2021/12/23 01:29:16;;;;;;;15.70;6.65;;;;;;;;;;5136779;27;20019;-72
2021/12/23 01:31:45;;;;;;;22.95;7.40;;;;;;;;;;5101336;27;20031;-72
2021/12/23 01:34:12;;;;;;;18.27;7.45;;;;;;;;;;5136643;27;20510;-71
2021/12/23 01:36:39;;;;;;;22.55;6.63;;;;;;;;;;5136504;27;20023;-72
2021/12/23 01:39:06;;;;;;;23.20;7.68;;;;;;;;;;5136571;27;20060;-71
2021/12/23 01:41:33;;;;;;;24.23;7.70;;;;;;;;;;5118046;27;20023;-72
2021/12/23 01:44:01;;;;;;;18.80;6.80;;;;;;;;;;5118037;27;20050;-72
2021/12/23 01:46:28;;;;;;;26.20;7.93;;;;;;;;;;5136359;27;20020;-71
2021/12/23 01:48:55;;;;;;;13.82;7.10;;;;;;;;;;5136456;27;20104;-72
2021/12/23 01:51:22;;;;;;;19.20;7.47;;;;;;;;;;5117264;27;20424;-71
2021/12/23 01:53:49;;;;;;;15.02;7.20;;;;;;;;;;5136105;27;20039;-72
2021/12/23 01:56:17;;;;;;;19.27;9.18;;;;;;;;;;5136240;27;20432;-71
2021/12/23 01:58:45;;;;;;;19.27;8.07;;;;;;;;;;5135965;27;20023;-72
2021/12/23 02:01:12;;;;;;;17.40;8.73;;;;;;;;;;5136151;27;20026;-71
2021/12/23 02:03:39;;;;;;;16.20;8.45;;;;;;;;;;5135945;27;20019;-72
2021/12/23 02:06:07;;;;;;;16.00;8.40;;;;;;;;;;5136007;27;20022;-72
2021/12/23 02:08:35;;;;;;;16.88;8.77;;;;;;;;;;5135948;27;20015;-72
2021/12/23 02:11:02;;;;;;;12.27;8.27;;;;;;;;;;5135968;27;20027;-72
2021/12/23 02:13:30;;;;;;;13.27;8.55;;;;;;;;;;5117385;27;20589;-72
2021/12/23 02:15:57;;;;;;;18.20;8.93;;;;;;;;;;5135939;27;20072;-72
2021/12/23 02:18:24;;;;;;;14.32;7.95;;;;;;;;;;5135785;27;20016;-72
2021/12/23 02:20:53;;;;;;;13.35;8.18;;;;;;;;;;5135774;27;20064;-72
2021/12/23 02:23:20;;;;;;;10.13;7.97;;;;;;;;;;5117110;27;20016;-72
2021/12/23 02:25:47;;;;;;;13.32;8.00;;;;;;;;;;5135686;27;20023;-72
2021/12/23 02:28:18;;;;;;;13.00;7.55;;;;;;;;;;5135604;27;20429;-72
2021/12/23 02:30:46;;;;;;;14.57;7.50;;;;;;;;;;5117086;27;20053;-72
2021/12/23 02:33:13;;;;;;;12.32;8.02;;;;;;;;;;5117099;27;20023;-73
2021/12/23 02:35:40;;;;;;;12.23;8.00;;;;;;;;;;5135489;27;20031;-72
2021/12/23 02:38:07;;;;;;;13.05;6.22;;;;;;;;;;5135258;27;20040;-72
2021/12/23 02:40:36;;;;;;;13.25;7.53;;;;;;;;;;5135444;27;20015;-72
2021/12/23 02:43:13;;;;;;;13.63;8.02;;;;;;;;;;5135323;27;20475;-72
2021/12/23 02:45:41;;;;;;;11.95;7.50;;;;;;;;;;5135128;27;20494;-71
2021/12/23 02:48:12;;;;;;;10.52;7.60;;;;;;;;;;5116764;27;20138;-73
2021/12/23 02:50:40;;;;;;;18.27;7.03;;;;;;;;;;5135152;27;20475;-73
2021/12/23 02:53:07;;;;;;;18.80;6.93;;;;;;;;;;5121300;27;20038;-72
2021/12/23 02:55:34;;;;;;;14.38;6.45;;;;;;;;;;5155870;27;20160;-72
2021/12/23 02:58:01;;;;;;;16.30;6.47;;;;;;;;;;5155664;27;20147;-72
2021/12/23 03:00:29;;;;;;;18.85;7.18;;;;;;;;;;5155643;27;20011;-72
2021/12/23 03:02:56;;;;;;;16.63;6.28;;;;;;;;;;5154777;27;20538;-72
2021/12/23 03:05:24;;;;;;;17.55;7.18;;;;;;;;;;5155655;27;20094;-72
2021/12/23 03:07:51;;;;;;;19.30;6.95;;;;;;;;;;5136973;27;20402;-72
2021/12/23 03:10:22;;;;;;;20.08;7.63;;;;;;;;;;5155391;27;20022;-73
2021/12/23 03:12:49;;;;;;;15.68;7.07;;;;;;;;;;5155545;27;20107;-73
2021/12/23 03:15:16;;;;;;;15.95;5.93;;;;;;;;;;5155373;27;20495;-73
2021/12/23 03:17:43;;;;;;;19.63;6.25;;;;;;;;;;5155376;27;20027;-73
2021/12/23 03:20:11;;;;;;;18.75;5.32;;;;;;;;;;5155292;27;20027;-73
2021/12/23 03:22:38;;;;;;;17.70;5.78;;;;;;;;;;5155270;27;20019;-73
2021/12/23 03:25:06;;;;;;;14.02;4.40;;;;;;;;;;5136536;27;20034;-73
2021/12/23 03:27:33;;;;;;;16.20;5.43;;;;;;;;;;5155162;27;20030;-73
2021/12/23 03:30:00;;;;;;;16.17;4.70;;;;;;;;;;5155173;27;20023;-73
2021/12/23 03:32:27;;;;;;;17.67;5.68;;;;;;;;;;5155103;27;20030;-73
2021/12/23 03:34:55;;;;;;;16.73;4.88;;;;;;;;;;5136384;27;20018;-73
2021/12/23 03:37:22;;;;;;;18.40;5.20;;;;;;;;;;5136464;27;20026;-72
2021/12/23 03:39:51;;;;;;;17.50;4.95;;;;;;;;;;5136287;27;20065;-73
2021/12/23 03:42:19;;;;;;;12.38;4.50;;;;;;;;;;5155017;27;20030;-73
2021/12/23 03:44:46;;;;;;;16.52;5.18;;;;;;;;;;5154861;27;20071;-72
2021/12/23 03:47:13;;;;;;;18.58;4.82;;;;;;;;;;5154946;27;20019;-73
2021/12/23 03:49:40;;;;;;;17.83;4.50;;;;;;;;;;5136170;27;20019;-73
2021/12/23 03:52:08;;;;;;;18.08;4.95;;;;;;;;;;5154821;27;20033;-72
2021/12/23 03:54:35;;;;;;;14.10;4.50;;;;;;;;;;5154539;27;20043;-73
2021/12/23 03:57:02;;;;;;;14.07;3.88;;;;;;;;;;5135914;27;20141;-72
2021/12/23 03:59:29;;;;;;;20.60;4.50;;;;;;;;;;5135860;27;20136;-72
2021/12/23 04:01:56;;;;;;;14.98;4.07;;;;;;;;;;5154827;27;20312;-73
2021/12/23 04:04:23;;;;;;;20.67;5.50;;;;;;;;;;5154548;27;20018;-72
2021/12/23 04:06:51;;;;;;;19.90;5.15;;;;;;;;;;5154586;27;20093;-72
2021/12/23 04:09:19;;;;;;;21.30;5.47;;;;;;;;;;5154642;27;20474;-74
2021/12/23 04:11:46;;;;;;;21.90;5.43;;;;;;;;;;5154556;27;20023;-72
2021/12/23 04:14:13;;;;;;;18.75;5.13;;;;;;;;;;5158070;27;20408;-71
2021/12/23 04:16:40;;;;;;;19.35;4.93;;;;;;;;;;5158741;27;20094;-72
2021/12/23 04:19:10;;;;;;;16.42;5.10;;;;;;;;;;5158658;27;20057;-72
2021/12/23 04:21:38;;;;;;;15.50;4.30;;;;;;;;;;5158738;27;20026;-73
2021/12/23 04:24:05;;;;;;;15.45;4.55;;;;;;;;;;5158852;27;20050;-72
2021/12/23 04:26:32;;;;;;;19.80;5.50;;;;;;;;;;5158652;27;20462;-73
2021/12/23 04:28:59;;;;;;;14.75;4.82;;;;;;;;;;5139718;27;20177;-72
2021/12/23 04:31:27;;;;;;;15.40;4.45;;;;;;;;;;5158594;27;20501;-73
2021/12/23 04:33:55;;;;;;;22.55;4.72;;;;;;;;;;5158770;27;20030;-73
2021/12/23 04:36:26;;;;;;;15.30;4.60;;;;;;;;;;5158561;27;20048;-73
2021/12/23 04:38:53;;;;;;;19.25;4.43;;;;;;;;;;5158535;27;20022;-73
2021/12/23 04:41:21;;;;;;;15.02;4.43;;;;;;;;;;5158309;27;20060;-73
2021/12/23 04:43:48;;;;;;;16.13;4.53;;;;;;;;;;5158398;27;20029;-72
2021/12/23 04:46:15;;;;;;;17.80;5.30;;;;;;;;;;5139650;27;20067;-73
2021/12/23 04:48:45;;;;;;;15.35;4.03;;;;;;;;;;5158299;27;20101;-73
2021/12/23 04:51:15;;;;;;;20.80;4.45;;;;;;;;;;5139322;27;20051;-73
2021/12/23 04:53:43;;;;;;;12.32;4.43;;;;;;;;;;5158302;27;20125;-72
2021/12/23 04:56:10;;;;;;;13.85;4.78;;;;;;;;;;5158195;27;20030;-73
2021/12/23 04:58:37;;;;;;;17.73;4.65;;;;;;;;;;5157951;27;20114;-73
2021/12/23 05:01:06;;;;;;;19.45;4.72;;;;;;;;;;5138978;27;20067;-73
2021/12/23 05:03:33;;;;;;;14.73;4.60;;;;;;;;;;5139297;27;20019;-73
2021/12/23 05:06:00;;;;;;;17.70;5.60;;;;;;;;;;5157803;27;20029;-73
2021/12/23 05:08:28;;;;;;;18.00;4.35;;;;;;;;;;5157879;27;20034;-73
2021/12/23 05:10:55;;;;;;;15.02;4.55;;;;;;;;;;5157896;27;20027;-73
2021/12/23 05:13:22;;;;;;;18.38;5.07;;;;;;;;;;5157783;27;20114;-73
2021/12/23 05:15:49;;;;;;;14.95;4.47;;;;;;;;;;5157762;27;20094;-73
2021/12/23 05:18:16;;;;;;;13.52;4.30;;;;;;;;;;5157442;27;20485;-72
2021/12/23 05:20:44;;;;;;;16.25;4.63;;;;;;;;;;5157557;27;20011;-73
2021/12/23 05:23:11;;;;;;;21.45;5.82;;;;;;;;;;5138884;27;20027;-73
2021/12/23 05:25:38;;;;;;;13.68;4.60;;;;;;;;;;5137906;27;20023;-73
2021/12/23 05:28:05;;;;;;;18.67;5.05;;;;;;;;;;5157389;27;20045;-72
2021/12/23 05:30:32;;;;;;;18.27;5.20;;;;;;;;;;5157447;27;20015;-73
2021/12/23 05:32:59;;;;;;;17.35;5.47;;;;;;;;;;5157360;27;20031;-72
2021/12/23 05:35:26;;;;;;;17.15;4.18;;;;;;;;;;5138873;27;20367;-72
2021/12/23 05:37:54;;;;;;;15.52;3.85;;;;;;;;;;5157283;27;20050;-72
2021/12/23 05:40:23;;;;;;;11.65;3.65;;;;;;;;;;5157260;27;20044;-72
2021/12/23 05:42:50;;;;;;;14.65;3.50;;;;;;;;;;5157069;27;20018;-72
2021/12/23 05:45:17;;;;;;;13.77;4.05;;;;;;;;;;5157114;27;20539;-73
2021/12/23 05:47:45;;;;;;;12.85;3.58;;;;;;;;;;5157122;27;20093;-73
2021/12/23 05:50:12;;;;;;;13.50;3.40;;;;;;;;;;5157193;27;20446;-72
2021/12/23 05:52:40;;;;;;;10.30;3.28;;;;;;;;;;5156852;27;20023;-73
2021/12/23 05:55:08;;;;;;;10.32;3.38;;;;;;;;;;5156908;27;20130;-73
2021/12/23 05:57:36;;;;;;;12.27;2.92;;;;;;;;;;5156786;27;20025;-73
2021/12/23 06:00:06;;;;;;;10.90;3.35;;;;;;;;;;5156949;27;20090;-72
2021/12/23 06:02:33;;;;;;;16.50;3.67;;;;;;;;;;5138012;27;20501;-73
2021/12/23 06:05:00;;;;;;;12.00;3.53;;;;;;;;;;5138156;27;20026;-73
2021/12/23 06:07:27;;;;;;;10.02;3.45;;;;;;;;;;5156729;27;20018;-73
2021/12/23 06:09:54;;;;;;;8.40;3.03;;;;;;;;;;5156624;27;20019;-73
2021/12/23 06:12:21;;;;;;;9.00;2.75;;;;;;;;;;5156692;27;20075;-73
2021/12/23 06:14:48;;;;;;;10.30;3.17;;;;;;;;;;5137587;27;20027;-73
2021/12/23 06:17:16;;;;;;;13.40;3.83;;;;;;;;;;5137995;27;20019;-73
2021/12/23 06:19:43;;;;;;;10.00;3.60;;;;;;;;;;5156414;27;20101;-73
2021/12/23 06:22:10;;;;;;;8.85;2.67;;;;;;;;;;5137737;27;20111;-73
2021/12/23 06:24:38;;;;;;;10.93;3.38;;;;;;;;;;5156018;27;20041;-73
2021/12/23 06:27:05;;;;;;;15.48;4.40;;;;;;;;;;5137169;27;20026;-73
2021/12/23 06:29:32;;;;;;;12.80;3.80;;;;;;;;;;5156223;27;20109;-73
2021/12/23 06:31:59;;;;;;;14.95;4.15;;;;;;;;;;5156336;27;20382;-73
2021/12/23 06:34:26;;;;;;;13.80;3.80;;;;;;;;;;5156209;27;20022;-73
2021/12/23 06:36:54;;;;;;;16.10;4.30;;;;;;;;;;5156134;27;20117;-74
2021/12/23 06:39:21;;;;;;;17.23;5.05;;;;;;;;;;5156001;27;20027;-73
2021/12/23 06:41:48;;;;;;;12.23;4.05;;;;;;;;;;5156127;27;20023;-73
2021/12/23 06:44:15;;;;;;;12.40;3.72;;;;;;;;;;5155881;27;20067;-73
2021/12/23 06:46:42;;;;;;;11.73;4.28;;;;;;;;;;5155965;27;20018;-73
2021/12/23 06:49:09;;;;;;;17.05;4.53;;;;;;;;;;5155854;27;20015;-73
2021/12/23 06:51:36;;;;;;;17.35;4.20;;;;;;;;;;5155903;27;20033;-73
2021/12/23 06:54:04;;;;;;;14.23;3.72;;;;;;;;;;5137216;27;20525;-73
2021/12/23 06:56:31;;;;;;;15.52;4.20;;;;;;;;;;5155726;27;20015;-73
2021/12/23 06:58:58;;;;;;;14.35;3.35;;;;;;;;;;5155485;27;20027;-73
2021/12/23 07:01:25;;;;;;;12.18;4.22;;;;;;;;;;5155623;27;20022;-73
2021/12/23 07:04:14;;;;;;;12.75;4.15;;;;;;;;;;5155526;27;20025;-73
2021/12/23 07:07:29;;;;;;;12.40;3.20;;;;;;;;;;5155684;27;20485;-73
2021/12/23 07:09:29;;;;;;;11.55;3.47;;;;;;;;;;5140283;27;20037;-73
2021/12/23 07:11:56;;;;;;;15.25;3.40;;;;;;;;;;5155527;27;20057;-73
2021/12/23 07:14:23;;;;;;;8.95;3.08;;;;;;;;;;5155325;27;20026;-73
2021/12/23 07:16:50;;;;;;;14.13;3.83;;;;;;;;;;5155358;27;20034;-73
2021/12/23 07:19:17;;;;;;;10.05;3.33;;;;;;;;;;5155257;27;20062;-73
2021/12/23 07:21:44;;;;;;;11.65;3.35;;;;;;;;;;5155273;27;20046;-72
2021/12/23 07:24:12;;;;;;;10.18;3.30;;;;;;;;;;5136764;27;20022;-73
2021/12/23 07:26:39;;;;;;;10.35;3.92;;;;;;;;;;5155174;27;20489;-73
2021/12/23 07:29:06;;;;;;;11.90;3.80;;;;;;;;;;5136716;27;20383;-72
2021/12/23 07:31:33;;;;;;;12.07;3.70;;;;;;;;;;5155115;27;20022;-73
2021/12/23 07:34:01;;;;;;;13.57;4.50;;;;;;;;;;5155033;27;20051;-73
2021/12/23 07:36:28;;;;;;;9.10;3.70;;;;;;;;;;5155130;27;20054;-72
2021/12/23 07:38:56;;;;;;;17.65;4.88;;;;;;;;;;5136481;27;20118;-73
2021/12/23 07:41:25;;;;;;;13.13;4.35;;;;;;;;;;5154813;27;20047;-73
2021/12/23 07:43:58;;;;;;;14.38;4.40;;;;;;;;;;5154921;27;20492;-73
2021/12/23 07:46:27;;;;;;;13.35;4.20;;;;;;;;;;5154986;27;20042;-72
2021/12/23 07:48:54;;;;;;;10.90;3.83;;;;;;;;;;5135490;27;20023;-73
2021/12/23 07:51:22;;;;;;;12.38;4.10;;;;;;;;;;5154877;27;20069;-73
2021/12/23 07:53:49;;;;;;;14.02;4.13;;;;;;;;;;5135903;27;20049;-72
2021/12/23 07:56:16;;;;;;;13.50;4.18;;;;;;;;;;5154672;27;20023;-72
2021/12/23 07:58:43;;;;;;;13.73;3.90;;;;;;;;;;5154747;27;20122;-72
2021/12/23 08:01:11;;;;;;;11.35;4.00;;;;;;;;;;5135706;27;20015;-72
2021/12/23 08:03:38;;;;;;;12.60;3.97;;;;;;;;;;5154640;27;20050;-73
2021/12/23 08:06:05;;;;;;;11.10;3.25;;;;;;;;;;5154574;27;20019;-73
2021/12/23 08:08:33;;;;;;;11.73;3.42;;;;;;;;;;5135861;27;20454;-73
2021/12/23 08:11:01;;;;;;;9.93;3.10;;;;;;;;;;5154490;27;20412;-73
2021/12/23 08:13:28;;;;;;;12.13;3.28;;;;;;;;;;5135931;27;20034;-72
2021/12/23 08:15:58;;;;;;;15.50;3.70;;;;;;;;;;5154365;27;20482;-72
2021/12/23 08:18:25;;;;;;;9.70;3.13;;;;;;;;;;5154394;27;20032;-72
2021/12/23 08:20:52;;;;;;;11.02;3.45;;;;;;;;;;5135681;27;20019;-72
2021/12/23 08:23:19;;;;;;;12.20;3.08;;;;;;;;;;5154183;27;20022;-73
2021/12/23 08:25:46;;;;;;;10.95;3.67;;;;;;;;;;5154154;27;20011;-72
2021/12/23 08:28:13;;;;;;;13.35;3.38;;;;;;;;;;5154253;27;20022;-72
2021/12/23 08:30:41;;;;;;;11.88;4.45;;;;;;;;;;5154413;27;20490;-73
2021/12/23 08:33:09;;;;;;;13.90;3.90;;;;;;;;;;5135381;27;20042;-73
2021/12/23 08:35:36;;;;;;;12.85;3.55;;;;;;;;;;5154314;27;20025;-72
2021/12/23 08:38:04;;;;;;;8.48;3.05;;;;;;;;;;5154268;27;20046;-72
2021/12/23 08:40:32;;;;;;;11.20;2.92;;;;;;;;;;5135748;27;20098;-72
2021/12/23 08:42:59;;;;;;;12.65;3.78;;;;;;;;;;5135703;27;20030;-73
2021/12/23 08:45:28;;;;;;;13.50;3.40;;;;;;;;;;5135800;27;20072;-72
2021/12/23 08:47:56;;;;;;;11.02;3.50;;;;;;;;;;5154259;27;20015;-73
2021/12/23 08:50:24;;;;;;;13.27;4.13;;;;;;;;;;5135747;27;20110;-73
2021/12/23 08:52:52;;;;;;;12.88;3.65;;;;;;;;;;5153961;27;20030;-73
2021/12/23 08:55:20;;;;;;;9.50;3.38;;;;;;;;;;5154301;27;20078;-72
2021/12/23 08:57:47;;;;;;;11.07;3.35;;;;;;;;;;5153846;27;20474;-73
2021/12/23 09:00:17;;;;;;;16.23;4.07;;;;;;;;;;5136830;27;20025;-73
2021/12/23 09:02:46;;;;;;;10.40;3.57;;;;;;;;;;5139132;27;20023;-73
2021/12/23 09:05:13;;;;;;;10.75;3.42;;;;;;;;;;5157983;27;20025;-73
2021/12/23 09:07:40;;;;;;;9.25;3.50;;;;;;;;;;5157925;27;20420;-74
2021/12/23 09:10:10;;;;;;;14.25;3.92;;;;;;;;;;5139112;27;20029;-73
2021/12/23 09:12:38;;;;;;;9.13;3.63;;;;;;;;;;5157904;27;20019;-73
2021/12/23 09:15:05;;;;;;;12.48;4.22;;;;;;;;;;5157797;27;20037;-73
2021/12/23 09:17:33;;;;;;;10.63;3.95;;;;;;;;;;5157724;27;20038;-73
2021/12/23 09:20:00;;;;;;;10.88;4.28;;;;;;;;;;5157683;27;20014;-73
2021/12/23 09:22:27;;;;;;;12.80;4.47;;;;;;;;;;5157626;27;20025;-73
2021/12/23 09:25:02;;;;;;;10.68;3.78;;;;;;;;;;5157486;27;20031;-73
2021/12/23 09:27:39;;;;;;;10.48;3.92;;;;;;;;;;5157602;27;20014;-73
2021/12/23 09:32:52;;;;;;;17.38;4.97;;;;;;;;;;5157745;27;20029;-73
2021/12/23 09:35:21;;;;;;;10.90;4.35;;;;;;;;;;5157328;27;20018;-73
2021/12/23 09:37:49;;;;;;;12.55;4.15;;;;;;;;;;5138584;27;20018;-73
2021/12/23 09:40:17;;;;;;;9.82;4.25;;;;;;;;;;5157394;27;20427;-72
2021/12/23 09:42:45;;;;;;;10.60;4.18;;;;;;;;;;5138546;27;20015;-72
2021/12/23 09:45:17;;;;;;;9.88;4.38;;;;;;;;;;5138421;27;20053;-71
2021/12/23 09:47:45;;;;;;;12.95;4.53;;;;;;;;;;5157215;27;20387;-73
2021/12/23 09:50:14;;;;;;;9.63;3.78;;;;;;;;;;5157191;27;20014;-73
2021/12/23 09:52:42;;;;;;;9.63;4.00;;;;;;;;;;5138241;27;20023;-73
2021/12/23 09:55:10;;;;;;;8.40;3.63;;;;;;;;;;5138599;27;20026;-73
2021/12/23 09:57:37;;;;;;;13.75;4.55;;;;;;;;;;5138525;27;20495;-73
2021/12/23 10:00:06;;;;;;;12.40;4.30;;;;;;;;;;5157018;27;20087;-73
2021/12/23 10:02:35;;;;;;;11.82;4.57;;;;;;;;;;5156950;27;20051;-73
2021/12/23 10:05:02;;;;;;;10.25;4.22;;;;;;;;;;5156898;27;20101;-73
2021/12/23 10:07:29;;;;;;;9.52;4.10;;;;;;;;;;5137916;27;20019;-73
2021/12/23 10:38:14;;;;;;;10.02;5.00;;;;;;;;;;5156402;27;20041;-72
2021/12/23 10:40:46;;;;;;;13.13;5.72;;;;;;;;;;5156229;27;20068;-73
2021/12/23 10:43:32;;;;;;;16.00;6.13;;;;;;;;;;5156222;27;20406;-72
2021/12/23 10:46:04;;;;;;;10.85;5.65;;;;;;;;;;5137021;27;20022;-72
2021/12/23 10:48:33;;;;;;;16.38;5.97;;;;;;;;;;5155901;27;20087;-73
2021/12/23 10:51:06;;;;;;;10.68;5.60;;;;;;;;;;5137087;27;20022;-73
2021/12/23 10:53:44;;;;;;;13.73;5.50;;;;;;;;;;5155767;27;20050;-73
2021/12/23 10:59:05;;;;;;;12.82;5.53;;;;;;;;;;5155796;27;20501;-73
2021/12/23 11:01:32;;;;;;;15.05;6.38;;;;;;;;;;5155735;27;20023;-73
2021/12/23 11:04:04;;;;;;;12.77;5.82;;;;;;;;;;5155643;27;20018;-73
2021/12/23 11:06:38;;;;;;;14.30;5.47;;;;;;;;;;5136840;27;20487;-73
2021/12/23 11:36:57;;;;;;;14.05;5.13;;;;;;;;;;5155053;27;20447;-72
2021/12/23 11:44:31;;;;;;;13.88;5.03;;;;;;;;;;5154700;27;20050;-72
2021/12/23 11:47:09;;;;;;;12.00;5.10;;;;;;;;;;5154938;27;20019;-72
2021/12/23 11:49:39;;;;;;;11.35;4.63;;;;;;;;;;5135997;27;20022;-72
2021/12/23 11:52:06;;;;;;;13.00;5.07;;;;;;;;;;5154901;27;20015;-73
2021/12/23 11:54:36;;;;;;;12.27;5.05;;;;;;;;;;5135751;27;20406;-73
2021/12/23 11:57:09;;;;;;;10.98;4.55;;;;;;;;;;5136266;27;20022;-72
2021/12/23 11:59:37;;;;;;;10.55;4.35;;;;;;;;;;5135885;27;20535;-71
2021/12/23 12:02:15;;;;;;;9.90;4.40;;;;;;;;;;5154766;27;20018;-72
2021/12/23 12:04:42;;;;;;;10.70;4.18;;;;;;;;;;5135720;27;20023;-73
2021/12/23 12:07:27;;;;;;;14.77;4.57;;;;;;;;;;5154732;27;20078;-73
2021/12/23 12:10:01;;;;;;;10.98;4.45;;;;;;;;;;5154836;27;20026;-72
2021/12/23 12:12:30;;;;;;;8.63;3.95;;;;;;;;;;5154604;27;20467;-72
2021/12/23 12:14:58;;;;;;;12.13;4.13;;;;;;;;;;5154594;27;20034;-72
2021/12/23 12:17:25;;;;;;;9.50;4.05;;;;;;;;;;5135574;27;20018;-73
2021/12/23 12:20:11;;;;;;;8.30;3.63;;;;;;;;;;5154438;27;20152;-72
2021/12/23 12:22:56;;;;;;;9.75;3.70;;;;;;;;;;5154713;27;20011;-73
2021/12/23 12:25:26;;;;;;;8.90;3.60;;;;;;;;;;5154579;27;20043;-73
2021/12/23 12:27:56;;;;;;;7.28;3.35;;;;;;;;;;5154562;27;20030;-72
2021/12/23 12:30:40;;;;;;;9.48;3.40;;;;;;;;;;5154353;27;20483;-73
2021/12/23 12:33:13;;;;;;;9.93;3.70;;;;;;;;;;5135658;27;20076;-73
2021/12/23 12:35:41;;;;;;;7.35;3.42;;;;;;;;;;5158578;27;20042;-72
2021/12/23 12:38:12;;;;;;;8.35;3.88;;;;;;;;;;5158519;27;20023;-72
2021/12/23 12:40:57;;;;;;;6.47;3.13;;;;;;;;;;5158492;27;20095;-72
2021/12/23 12:43:34;;;;;;;11.00;3.65;;;;;;;;;;5158587;27;20018;-72
2021/12/23 12:46:02;;;;;;;6.80;3.35;;;;;;;;;;5158549;27;20467;-72
2021/12/23 12:48:47;;;;;;;6.47;3.20;;;;;;;;;;5158357;27;20018;-72
2021/12/23 12:51:21;;;;;;;7.32;3.30;;;;;;;;;;5158447;27;20051;-72
2021/12/23 12:53:55;;;;;;;10.48;3.55;;;;;;;;;;5158069;27;20517;-72
2021/12/23 12:56:23;;;;;;;9.05;3.08;;;;;;;;;;5158228;27;20045;-72
2021/12/23 12:58:55;;;;;;;6.13;3.17;;;;;;;;;;5158108;27;20015;-73
2021/12/23 13:01:42;;;;;;;7.40;3.17;;;;;;;;;;5158065;27;20108;-72
2021/12/23 13:04:26;;;;;;;8.02;3.15;;;;;;;;;;5157949;27;20015;-73
2021/12/23 13:06:55;;;;;;;7.28;3.22;;;;;;;;;;5158023;27;20018;-72
2021/12/23 13:09:29;;;;;;;8.77;3.38;;;;;;;;;;5139452;27;20122;-72
2021/12/23 13:11:59;;;;;;;5.40;2.88;;;;;;;;;;5157952;27;20391;-72
2021/12/23 13:14:48;;;;;;;10.13;4.00;;;;;;;;;;5139322;27;20391;-72
2021/12/23 13:17:15;;;;;;;11.15;3.33;;;;;;;;;;5157803;27;20082;-72
2021/12/23 13:19:43;;;;;;;9.07;3.55;;;;;;;;;;5157761;27;20083;-73
2021/12/23 13:22:14;;;;;;;9.30;3.03;;;;;;;;;;5138893;27;20072;-73
2021/12/23 13:24:45;;;;;;;6.53;3.15;;;;;;;;;;5157858;27;20054;-73
2021/12/23 13:27:12;;;;;;;6.93;2.97;;;;;;;;;;5157557;27;20159;-73
2021/12/23 13:29:41;;;;;;;9.57;3.08;;;;;;;;;;5138690;27;20500;-72
2021/12/23 13:32:09;;;;;;;6.78;3.05;;;;;;;;;;5157401;27;20022;-73
2021/12/23 13:34:36;;;;;;;7.32;3.15;;;;;;;;;;5157402;27;20022;-72
2021/12/23 13:37:08;;;;;;;7.03;3.25;;;;;;;;;;5157376;27;20094;-72
2021/12/23 13:39:40;;;;;;;9.32;3.40;;;;;;;;;;5157484;27;20075;-73
2021/12/23 13:42:09;;;;;;;9.02;3.35;;;;;;;;;;5157406;27;20022;-73
2021/12/23 13:44:36;;;;;;;9.48;3.20;;;;;;;;;;5138533;27;20019;-73
2021/12/23 13:47:11;;;;;;;8.77;3.30;;;;;;;;;;5156614;27;20019;-73
2021/12/23 13:49:41;;;;;;;8.98;3.30;;;;;;;;;;5138630;27;20030;-73
2021/12/23 13:52:10;;;;;;;7.53;3.50;;;;;;;;;;5157224;27;20551;-73
2021/12/23 13:54:41;;;;;;;6.28;2.97;;;;;;;;;;5156984;27;20073;-73
2021/12/23 13:57:09;;;;;;;6.00;2.70;;;;;;;;;;5157299;27;20105;-73
2021/12/23 13:59:36;;;;;;;9.93;3.10;;;;;;;;;;5138154;27;20047;-73
2021/12/23 14:02:05;;;;;;;8.05;3.00;;;;;;;;;;5156986;27;20090;-73
2021/12/23 14:04:32;;;;;;;7.97;3.15;;;;;;;;;;5156864;27;20064;-73
2021/12/23 14:07:00;;;;;;;7.05;3.30;;;;;;;;;;5156795;27;20355;-73
2021/12/23 14:09:34;;;;;;;9.15;3.58;;;;;;;;;;5156882;27;20023;-74
2021/12/23 14:12:01;;;;;;;9.05;2.97;;;;;;;;;;5156857;27;20074;-73
2021/12/23 14:14:28;;;;;;;6.35;2.83;;;;;;;;;;5156728;27;20061;-73
2021/12/23 14:16:55;;;;;;;12.10;3.30;;;;;;;;;;5156640;27;20050;-73
2021/12/23 14:19:40;;;;;;;9.82;2.97;;;;;;;;;;5156559;27;20015;-73
2021/12/23 14:24:57;;;;;;;9.07;3.53;;;;;;;;;;5157208;27;20149;-72
2021/12/23 14:27:24;;;;;;;7.45;3.00;;;;;;;;;;5156387;27;20047;-72
2021/12/23 14:30:00;;;;;;;8.35;3.13;;;;;;;;;;5156395;27;20387;-72
2021/12/23 14:32:27;;;;;;;8.98;2.50;;;;;;;;;;5156498;27;20056;-72
2021/12/23 14:34:54;;;;;;;8.00;3.00;;;;;;;;;;5137774;27;20402;-72
2021/12/23 14:37:21;;;;;;;10.43;2.88;;;;;;;;;;5156340;27;20391;-72
2021/12/23 14:39:48;;;;;;;6.30;3.10;;;;;;;;;;5156173;27;20026;-72
2021/12/23 14:42:16;;;;;;;8.45;2.95;;;;;;;;;;5156055;27;20493;-72
2021/12/23 14:44:44;;;;;;;9.98;3.05;;;;;;;;;;5156102;27;20011;-71
2021/12/23 14:47:23;;;;;;;7.00;2.70;;;;;;;;;;5156108;27;20090;-72
2021/12/23 14:50:17;;;;;;;8.23;3.00;;;;;;;;;;5156062;27;20014;-72
2021/12/23 14:52:53;;;;;;;4.80;2.95;;;;;;;;;;5154782;27;20049;-72
2021/12/23 14:55:22;;;;;;;9.45;2.60;;;;;;;;;;5156026;27;20483;-72
2021/12/23 14:57:58;;;;;;;5.97;2.88;;;;;;;;;;5154711;27;20386;-72
2021/12/23 15:00:43;;;;;;;7.72;3.25;;;;;;;;;;5137150;27;20078;-73
2021/12/23 15:03:12;;;;;;;11.07;2.88;;;;;;;;;;5155774;27;20019;-73
2021/12/23 15:05:40;;;;;;;7.85;2.38;;;;;;;;;;5155652;27;20382;-72
2021/12/23 15:08:09;;;;;;;7.22;3.00;;;;;;;;;;5136647;27;20023;-72
2021/12/23 15:10:38;;;;;;;7.00;2.72;;;;;;;;;;5155680;27;20026;-72
2021/12/23 15:13:16;;;;;;;7.82;2.40;;;;;;;;;;5155666;27;20011;-72
2021/12/23 15:15:44;;;;;;;10.40;2.90;;;;;;;;;;5155527;27;20027;-72
2021/12/23 15:18:29;;;;;;;8.77;2.20;;;;;;;;;;5136638;27;20033;-72
2021/12/23 15:20:57;;;;;;;7.20;2.30;;;;;;;;;;5155399;27;20474;-72
2021/12/23 15:23:37;;;;;;;7.15;2.38;;;;;;;;;;5136577;27;20082;-72
2021/12/23 15:26:19;;;;;;;10.13;2.53;;;;;;;;;;5155303;27;20049;-72
2021/12/23 15:29:03;;;;;;;8.35;2.10;;;;;;;;;;5155310;27;20103;-72
2021/12/23 15:31:30;;;;;;;6.70;2.35;;;;;;;;;;5155306;27;20022;-72
2021/12/23 15:33:57;;;;;;;10.77;3.30;;;;;;;;;;5155554;27;20022;-72
2021/12/23 15:36:24;;;;;;;7.47;2.70;;;;;;;;;;5155186;27;20034;-72
2021/12/23 15:38:51;;;;;;;5.47;2.70;;;;;;;;;;5155226;27;20386;-72
2021/12/23 15:41:18;;;;;;;7.25;2.08;;;;;;;;;;5155128;27;20023;-72
2021/12/23 15:43:45;;;;;;;9.02;2.67;;;;;;;;;;5155115;27;20022;-72
2021/12/23 15:46:12;;;;;;;11.68;3.17;;;;;;;;;;5154975;27;20018;-72
2021/12/23 15:48:41;;;;;;;9.15;3.20;;;;;;;;;;5135987;27;20030;-73
2021/12/23 15:51:11;;;;;;;8.45;3.08;;;;;;;;;;5155073;27;20033;-72
2021/12/23 15:53:38;;;;;;;9.40;2.55;;;;;;;;;;5136054;27;20403;-72
2021/12/23 15:56:05;;;;;;;7.25;2.90;;;;;;;;;;5154934;27;20075;-73
2021/12/23 15:58:34;;;;;;;5.55;2.80;;;;;;;;;;5135737;27;20079;-72
2021/12/23 16:01:01;;;;;;;8.23;3.10;;;;;;;;;;5135998;27;20026;-72
2021/12/23 16:03:29;;;;;;;10.93;3.42;;;;;;;;;;5154760;27;20022;-72
2021/12/23 16:08:41;;;;;;;7.70;3.15;;;;;;;;;;5154535;27;20038;-72